sensor_id;sensor_type;location;lat;lon;timestamp;P1;durP1;ratioP1;P2;durP2;ratioP2
16820;SDS011;8527;49.740;6.604;2024-03-17T00:03:08;4.72;;;2.65;;
16820;SDS011;8527;49.740;6.604;2024-03-17T00:08:06;2.50;;;2.30;;
16820;SDS011;8527;49.740;6.604;2024-03-17T00:13:06;4.93;;;2.42;;
16820;SDS011;8527;49.740;6.604;2024-03-17T00:18:07;2.40;;;2.20;;
16820;SDS011;8527;49.740;6.604;2024-03-17T00:23:06;4.72;;;2.60;;
16820;SDS011;8527;49.740;6.604;2024-03-17T00:28:06;5.15;;;2.38;;
16820;SDS011;8527;49.740;6.604;2024-03-17T00:33:09;3.28;;;2.50;;
16820;SDS011;8527;49.740;6.604;2024-03-17T00:38:14;5.03;;;2.75;;
16820;SDS011;8527;49.740;6.604;2024-03-17T00:43:18;3.95;;;2.60;;
16820;SDS011;8527;49.740;6.604;2024-03-17T00:48:25;4.95;;;2.95;;
16820;SDS011;8527;49.740;6.604;2024-03-17T00:53:24;3.47;;;2.78;;
16820;SDS011;8527;49.740;6.604;2024-03-17T00:58:22;6.60;;;3.88;;
16820;SDS011;8527;49.740;6.604;2024-03-17T01:03:20;5.72;;;3.83;;
16820;SDS011;8527;49.740;6.604;2024-03-17T01:08:22;4.10;;;2.60;;
16820;SDS011;8527;49.740;6.604;2024-03-17T01:13:24;3.10;;;2.75;;
16820;SDS011;8527;49.740;6.604;2024-03-17T01:18:22;3.92;;;3.00;;
16820;SDS011;8527;49.740;6.604;2024-03-17T01:23:24;4.18;;;2.97;;
16820;SDS011;8527;49.740;6.604;2024-03-17T01:28:23;4.03;;;2.60;;
16820;SDS011;8527;49.740;6.604;2024-03-17T01:33:29;4.65;;;2.88;;
16820;SDS011;8527;49.740;6.604;2024-03-17T01:38:33;4.80;;;2.60;;
16820;SDS011;8527;49.740;6.604;2024-03-17T01:43:34;5.07;;;3.05;;
16820;SDS011;8527;49.740;6.604;2024-03-17T01:48:33;8.10;;;3.20;;
16820;SDS011;8527;49.740;6.604;2024-03-17T01:53:34;5.35;;;3.10;;
16820;SDS011;8527;49.740;6.604;2024-03-17T01:58:33;4.53;;;2.75;;
16820;SDS011;8527;49.740;6.604;2024-03-17T02:03:33;6.70;;;2.92;;
16820;SDS011;8527;49.740;6.604;2024-03-17T02:08:50;6.75;;;2.80;;
16820;SDS011;8527;49.740;6.604;2024-03-17T02:13:52;3.25;;;2.60;;
16820;SDS011;8527;49.740;6.604;2024-03-17T02:18:53;3.40;;;2.80;;
16820;SDS011;8527;49.740;6.604;2024-03-17T02:23:55;5.32;;;2.60;;
16820;SDS011;8527;49.740;6.604;2024-03-17T02:28:54;2.95;;;2.67;;
16820;SDS011;8527;49.740;6.604;2024-03-17T02:33:58;4.55;;;2.72;;
16820;SDS011;8527;49.740;6.604;2024-03-17T02:38:59;3.38;;;2.97;;
16820;SDS011;8527;49.740;6.604;2024-03-17T02:44:10;7.57;;;2.63;;
16820;SDS011;8527;49.740;6.604;2024-03-17T02:49:12;5.32;;;2.75;;
16820;SDS011;8527;49.740;6.604;2024-03-17T02:54:15;3.90;;;2.95;;
16820;SDS011;8527;49.740;6.604;2024-03-17T02:59:14;7.72;;;3.00;;
16820;SDS011;8527;49.740;6.604;2024-03-17T03:04:12;3.08;;;2.78;;
16820;SDS011;8527;49.740;6.604;2024-03-17T03:09:16;6.13;;;2.50;;
16820;SDS011;8527;49.740;6.604;2024-03-17T03:14:21;4.63;;;3.03;;
16820;SDS011;8527;49.740;6.604;2024-03-17T03:19:22;3.05;;;2.70;;
16820;SDS011;8527;49.740;6.604;2024-03-17T03:24:23;4.55;;;2.80;;
16820;SDS011;8527;49.740;6.604;2024-03-17T03:29:22;5.32;;;2.80;;
16820;SDS011;8527;49.740;6.604;2024-03-17T03:34:20;6.90;;;3.63;;
16820;SDS011;8527;49.740;6.604;2024-03-17T03:39:19;5.82;;;3.17;;
16820;SDS011;8527;49.740;6.604;2024-03-17T03:44:20;5.30;;;3.03;;
16820;SDS011;8527;49.740;6.604;2024-03-17T03:49:18;5.28;;;3.60;;
16820;SDS011;8527;49.740;6.604;2024-03-17T03:54:17;5.18;;;3.00;;
16820;SDS011;8527;49.740;6.604;2024-03-17T03:59:15;4.78;;;3.58;;
16820;SDS011;8527;49.740;6.604;2024-03-17T04:04:18;7.20;;;4.05;;
16820;SDS011;8527;49.740;6.604;2024-03-17T04:09:19;9.70;;;4.30;;
16820;SDS011;8527;49.740;6.604;2024-03-17T04:14:17;6.25;;;3.90;;
16820;SDS011;8527;49.740;6.604;2024-03-17T04:19:18;11.05;;;5.05;;
16820;SDS011;8527;49.740;6.604;2024-03-17T04:24:17;6.35;;;3.35;;
16820;SDS011;8527;49.740;6.604;2024-03-17T04:29:15;3.17;;;2.88;;
16820;SDS011;8527;49.740;6.604;2024-03-17T04:34:21;5.32;;;2.90;;
16820;SDS011;8527;49.740;6.604;2024-03-17T04:39:19;4.60;;;2.65;;
16820;SDS011;8527;49.740;6.604;2024-03-17T04:44:18;4.30;;;2.40;;
16820;SDS011;8527;49.740;6.604;2024-03-17T04:49:16;5.45;;;2.88;;
16820;SDS011;8527;49.740;6.604;2024-03-17T04:54:18;4.88;;;2.60;;
16820;SDS011;8527;49.740;6.604;2024-03-17T04:59:19;2.60;;;2.30;;
16820;SDS011;8527;49.740;6.604;2024-03-17T05:04:18;3.30;;;2.78;;
16820;SDS011;8527;49.740;6.604;2024-03-17T05:09:20;3.65;;;2.25;;
16820;SDS011;8527;49.740;6.604;2024-03-17T05:14:18;4.47;;;2.88;;
16820;SDS011;8527;49.740;6.604;2024-03-17T05:19:17;5.72;;;2.97;;
16820;SDS011;8527;49.740;6.604;2024-03-17T05:24:19;4.95;;;3.28;;
16820;SDS011;8527;49.740;6.604;2024-03-17T05:29:20;5.78;;;3.03;;
16820;SDS011;8527;49.740;6.604;2024-03-17T05:34:18;6.55;;;3.25;;
16820;SDS011;8527;49.740;6.604;2024-03-17T05:39:21;6.88;;;2.88;;
16820;SDS011;8527;49.740;6.604;2024-03-17T05:44:20;4.80;;;3.28;;
16820;SDS011;8527;49.740;6.604;2024-03-17T05:49:21;4.60;;;2.97;;
16820;SDS011;8527;49.740;6.604;2024-03-17T05:54:25;4.15;;;2.80;;
16820;SDS011;8527;49.740;6.604;2024-03-17T05:59:23;6.15;;;3.47;;
16820;SDS011;8527;49.740;6.604;2024-03-17T06:04:21;6.57;;;2.95;;
16820;SDS011;8527;49.740;6.604;2024-03-17T06:09:20;3.25;;;2.60;;
16820;SDS011;8527;49.740;6.604;2024-03-17T06:14:22;3.75;;;2.80;;
16820;SDS011;8527;49.740;6.604;2024-03-17T06:19:24;4.53;;;3.80;;
16820;SDS011;8527;49.740;6.604;2024-03-17T06:24:22;5.15;;;3.58;;
16820;SDS011;8527;49.740;6.604;2024-03-17T06:29:24;6.60;;;3.70;;
16820;SDS011;8527;49.740;6.604;2024-03-17T06:34:22;4.75;;;3.40;;
16820;SDS011;8527;49.740;6.604;2024-03-17T06:39:26;6.10;;;3.50;;
16820;SDS011;8527;49.740;6.604;2024-03-17T06:44:28;4.75;;;3.40;;
16820;SDS011;8527;49.740;6.604;2024-03-17T06:49:28;15.07;;;8.25;;
16820;SDS011;8527;49.740;6.604;2024-03-17T06:54:27;5.70;;;4.03;;
16820;SDS011;8527;49.740;6.604;2024-03-17T06:59:35;7.75;;;3.90;;
16820;SDS011;8527;49.740;6.604;2024-03-17T07:04:39;6.50;;;4.00;;
16820;SDS011;8527;49.740;6.604;2024-03-17T07:09:38;5.55;;;3.53;;
16820;SDS011;8527;49.740;6.604;2024-03-17T07:14:39;5.53;;;4.00;;
16820;SDS011;8527;49.740;6.604;2024-03-17T07:19:38;5.22;;;3.83;;
16820;SDS011;8527;49.740;6.604;2024-03-17T07:24:37;6.43;;;3.83;;
16820;SDS011;8527;49.740;6.604;2024-03-17T07:29:35;5.72;;;3.80;;
16820;SDS011;8527;49.740;6.604;2024-03-17T07:34:36;8.75;;;4.50;;
16820;SDS011;8527;49.740;6.604;2024-03-17T07:39:35;6.03;;;4.28;;
16820;SDS011;8527;49.740;6.604;2024-03-17T07:44:37;5.32;;;4.10;;
16820;SDS011;8527;49.740;6.604;2024-03-17T07:49:41;6.85;;;3.88;;
16820;SDS011;8527;49.740;6.604;2024-03-17T07:54:41;6.70;;;4.20;;
16820;SDS011;8527;49.740;6.604;2024-03-17T07:59:42;6.47;;;4.10;;
16820;SDS011;8527;49.740;6.604;2024-03-17T08:04:44;8.65;;;4.90;;
16820;SDS011;8527;49.740;6.604;2024-03-17T08:09:42;5.78;;;4.25;;
16820;SDS011;8527;49.740;6.604;2024-03-17T08:14:41;7.70;;;4.05;;
16820;SDS011;8527;49.740;6.604;2024-03-17T08:19:40;6.93;;;3.72;;
16820;SDS011;8527;49.740;6.604;2024-03-17T08:24:41;5.22;;;3.67;;
16820;SDS011;8527;49.740;6.604;2024-03-17T08:29:39;6.57;;;4.25;;
16820;SDS011;8527;49.740;6.604;2024-03-17T08:34:38;6.55;;;4.50;;
16820;SDS011;8527;49.740;6.604;2024-03-17T08:39:46;4.95;;;3.83;;
16820;SDS011;8527;49.740;6.604;2024-03-17T08:44:48;7.43;;;4.20;;
16820;SDS011;8527;49.740;6.604;2024-03-17T08:49:49;6.00;;;4.25;;
16820;SDS011;8527;49.740;6.604;2024-03-17T08:54:51;7.63;;;4.28;;
16820;SDS011;8527;49.740;6.604;2024-03-17T08:59:52;5.53;;;3.90;;
16820;SDS011;8527;49.740;6.604;2024-03-17T09:04:54;7.18;;;3.90;;
16820;SDS011;8527;49.740;6.604;2024-03-17T09:09:55;6.00;;;3.85;;
16820;SDS011;8527;49.740;6.604;2024-03-17T09:14:54;7.65;;;4.47;;
16820;SDS011;8527;49.740;6.604;2024-03-17T09:19:53;10.18;;;4.88;;
16820;SDS011;8527;49.740;6.604;2024-03-17T09:24:52;13.27;;;6.00;;
16820;SDS011;8527;49.740;6.604;2024-03-17T09:29:53;12.60;;;6.07;;
16820;SDS011;8527;49.740;6.604;2024-03-17T09:34:51;12.15;;;5.55;;
16820;SDS011;8527;49.740;6.604;2024-03-17T09:39:50;16.27;;;7.10;;
16820;SDS011;8527;49.740;6.604;2024-03-17T09:44:54;13.70;;;5.95;;
16820;SDS011;8527;49.740;6.604;2024-03-17T09:49:57;13.20;;;6.22;;
16820;SDS011;8527;49.740;6.604;2024-03-17T09:55:00;18.33;;;6.72;;
16820;SDS011;8527;49.740;6.604;2024-03-17T10:00:13;18.50;;;7.22;;
16820;SDS011;8527;49.740;6.604;2024-03-17T10:05:18;17.98;;;7.47;;
16820;SDS011;8527;49.740;6.604;2024-03-17T10:10:23;16.80;;;7.03;;
16820;SDS011;8527;49.740;6.604;2024-03-17T10:15:25;25.35;;;7.72;;
16820;SDS011;8527;49.740;6.604;2024-03-17T10:20:23;16.42;;;7.32;;
16820;SDS011;8527;49.740;6.604;2024-03-17T10:25:23;18.05;;;7.32;;
16820;SDS011;8527;49.740;6.604;2024-03-17T10:30:24;16.73;;;6.80;;
16820;SDS011;8527;49.740;6.604;2024-03-17T10:35:26;17.05;;;6.93;;
16820;SDS011;8527;49.740;6.604;2024-03-17T10:40:28;18.23;;;7.50;;
16820;SDS011;8527;49.740;6.604;2024-03-17T10:45:30;15.50;;;6.28;;
16820;SDS011;8527;49.740;6.604;2024-03-17T10:50:37;13.73;;;6.05;;
16820;SDS011;8527;49.740;6.604;2024-03-17T10:55:43;15.23;;;6.85;;
16820;SDS011;8527;49.740;6.604;2024-03-17T11:00:45;15.60;;;6.80;;
16820;SDS011;8527;49.740;6.604;2024-03-17T11:05:46;13.95;;;5.93;;
16820;SDS011;8527;49.740;6.604;2024-03-17T11:10:53;14.88;;;6.82;;
16820;SDS011;8527;49.740;6.604;2024-03-17T11:15:55;14.88;;;6.20;;
16820;SDS011;8527;49.740;6.604;2024-03-17T11:21:00;15.25;;;6.63;;
16820;SDS011;8527;49.740;6.604;2024-03-17T11:26:03;15.25;;;6.18;;
16820;SDS011;8527;49.740;6.604;2024-03-17T11:31:06;14.73;;;6.30;;
16820;SDS011;8527;49.740;6.604;2024-03-17T11:36:36;14.65;;;6.80;;
16820;SDS011;8527;49.740;6.604;2024-03-17T11:41:41;15.35;;;6.32;;
16820;SDS011;8527;49.740;6.604;2024-03-17T11:46:44;12.57;;;6.38;;
16820;SDS011;8527;49.740;6.604;2024-03-17T11:51:43;15.27;;;5.90;;
16820;SDS011;8527;49.740;6.604;2024-03-17T11:56:47;13.20;;;5.70;;
16820;SDS011;8527;49.740;6.604;2024-03-17T12:01:50;12.57;;;5.85;;
16820;SDS011;8527;49.740;6.604;2024-03-17T12:06:48;12.82;;;5.80;;
16820;SDS011;8527;49.740;6.604;2024-03-17T12:11:48;15.95;;;5.97;;
16820;SDS011;8527;49.740;6.604;2024-03-17T12:17:00;13.88;;;5.50;;
16820;SDS011;8527;49.740;6.604;2024-03-17T12:22:02;12.05;;;5.60;;
16820;SDS011;8527;49.740;6.604;2024-03-17T12:27:04;12.75;;;5.70;;
16820;SDS011;8527;49.740;6.604;2024-03-17T12:32:10;11.75;;;5.72;;
16820;SDS011;8527;49.740;6.604;2024-03-17T12:37:18;12.98;;;5.85;;
16820;SDS011;8527;49.740;6.604;2024-03-17T12:42:22;12.00;;;6.00;;
16820;SDS011;8527;49.740;6.604;2024-03-17T12:47:25;10.55;;;5.45;;
16820;SDS011;8527;49.740;6.604;2024-03-17T12:52:33;9.13;;;5.30;;
16820;SDS011;8527;49.740;6.604;2024-03-17T12:57:31;14.10;;;4.78;;
16820;SDS011;8527;49.740;6.604;2024-03-17T13:02:45;10.98;;;5.43;;
16820;SDS011;8527;49.740;6.604;2024-03-17T13:07:44;12.07;;;4.90;;
16820;SDS011;8527;49.740;6.604;2024-03-17T13:12:43;10.23;;;4.95;;
16820;SDS011;8527;49.740;6.604;2024-03-17T13:17:44;11.15;;;4.80;;
16820;SDS011;8527;49.740;6.604;2024-03-17T13:22:43;8.82;;;4.20;;
16820;SDS011;8527;49.740;6.604;2024-03-17T13:27:42;8.15;;;3.90;;
16820;SDS011;8527;49.740;6.604;2024-03-17T13:32:41;7.78;;;3.63;;
16820;SDS011;8527;49.740;6.604;2024-03-17T13:37:43;9.20;;;3.40;;
16820;SDS011;8527;49.740;6.604;2024-03-17T13:42:42;6.25;;;3.20;;
16820;SDS011;8527;49.740;6.604;2024-03-17T13:47:46;4.18;;;2.90;;
16820;SDS011;8527;49.740;6.604;2024-03-17T13:52:46;4.55;;;2.92;;
16820;SDS011;8527;49.740;6.604;2024-03-17T13:57:46;4.68;;;2.72;;
16820;SDS011;8527;49.740;6.604;2024-03-17T14:02:50;5.22;;;3.00;;
16820;SDS011;8527;49.740;6.604;2024-03-17T14:07:51;5.25;;;2.63;;
16820;SDS011;8527;49.740;6.604;2024-03-17T14:12:50;2.47;;;1.95;;
16820;SDS011;8527;49.740;6.604;2024-03-17T14:17:51;7.13;;;2.50;;
16820;SDS011;8527;49.740;6.604;2024-03-17T14:22:49;3.58;;;2.05;;
16820;SDS011;8527;49.740;6.604;2024-03-17T14:27:51;5.70;;;2.28;;
16820;SDS011;8527;49.740;6.604;2024-03-17T14:32:52;2.53;;;1.70;;
16820;SDS011;8527;49.740;6.604;2024-03-17T14:37:51;3.00;;;2.20;;
16820;SDS011;8527;49.740;6.604;2024-03-17T14:42:51;3.47;;;2.17;;
16820;SDS011;8527;49.740;6.604;2024-03-17T14:47:53;2.15;;;1.90;;
16820;SDS011;8527;49.740;6.604;2024-03-17T14:52:51;3.50;;;2.20;;
16820;SDS011;8527;49.740;6.604;2024-03-17T14:57:49;4.25;;;2.58;;
16820;SDS011;8527;49.740;6.604;2024-03-17T15:02:48;5.65;;;2.58;;
16820;SDS011;8527;49.740;6.604;2024-03-17T15:07:51;5.05;;;2.65;;
16820;SDS011;8527;49.740;6.604;2024-03-17T15:12:50;2.65;;;2.08;;
16820;SDS011;8527;49.740;6.604;2024-03-17T15:17:49;5.05;;;2.55;;
16820;SDS011;8527;49.740;6.604;2024-03-17T15:22:50;5.05;;;2.60;;
16820;SDS011;8527;49.740;6.604;2024-03-17T15:27:49;2.22;;;1.77;;
16820;SDS011;8527;49.740;6.604;2024-03-17T15:32:48;4.30;;;2.15;;
16820;SDS011;8527;49.740;6.604;2024-03-17T15:37:52;3.10;;;2.35;;
16820;SDS011;8527;49.740;6.604;2024-03-17T15:42:50;6.95;;;3.10;;
16820;SDS011;8527;49.740;6.604;2024-03-17T15:47:50;3.40;;;2.53;;
16820;SDS011;8527;49.740;6.604;2024-03-17T15:52:48;5.38;;;2.35;;
16820;SDS011;8527;49.740;6.604;2024-03-17T15:57:49;3.67;;;2.28;;
16820;SDS011;8527;49.740;6.604;2024-03-17T16:02:49;2.00;;;1.80;;
16820;SDS011;8527;49.740;6.604;2024-03-17T16:07:47;5.15;;;2.15;;
16820;SDS011;8527;49.740;6.604;2024-03-17T16:12:46;2.92;;;2.40;;
16820;SDS011;8527;49.740;6.604;2024-03-17T16:17:47;2.97;;;2.30;;
16820;SDS011;8527;49.740;6.604;2024-03-17T16:22:45;3.80;;;2.20;;
16820;SDS011;8527;49.740;6.604;2024-03-17T16:27:48;4.57;;;1.70;;
16820;SDS011;8527;49.740;6.604;2024-03-17T16:32:52;2.97;;;1.83;;
16820;SDS011;8527;49.740;6.604;2024-03-17T16:37:50;3.10;;;2.03;;
16820;SDS011;8527;49.740;6.604;2024-03-17T16:42:49;5.05;;;2.47;;
16820;SDS011;8527;49.740;6.604;2024-03-17T16:47:47;3.67;;;2.08;;
16820;SDS011;8527;49.740;6.604;2024-03-17T16:52:48;4.60;;;2.10;;
16820;SDS011;8527;49.740;6.604;2024-03-17T16:57:47;3.97;;;1.95;;
16820;SDS011;8527;49.740;6.604;2024-03-17T17:02:45;3.60;;;2.45;;
16820;SDS011;8527;49.740;6.604;2024-03-17T17:07:47;3.80;;;2.42;;
16820;SDS011;8527;49.740;6.604;2024-03-17T17:12:46;4.10;;;2.45;;
16820;SDS011;8527;49.740;6.604;2024-03-17T17:17:45;4.03;;;2.03;;
16820;SDS011;8527;49.740;6.604;2024-03-17T17:22:48;5.43;;;2.55;;
16820;SDS011;8527;49.740;6.604;2024-03-17T17:27:47;7.85;;;4.25;;
16820;SDS011;8527;49.740;6.604;2024-03-17T17:32:45;6.07;;;2.83;;
16820;SDS011;8527;49.740;6.604;2024-03-17T17:37:44;5.53;;;2.35;;
16820;SDS011;8527;49.740;6.604;2024-03-17T17:42:45;3.70;;;2.13;;
16820;SDS011;8527;49.740;6.604;2024-03-17T17:47:43;3.05;;;2.00;;
16820;SDS011;8527;49.740;6.604;2024-03-17T17:52:42;2.85;;;1.90;;
16820;SDS011;8527;49.740;6.604;2024-03-17T17:57:40;5.00;;;3.53;;
16820;SDS011;8527;49.740;6.604;2024-03-17T18:02:41;5.55;;;2.20;;
16820;SDS011;8527;49.740;6.604;2024-03-17T18:07:39;3.20;;;2.35;;
16820;SDS011;8527;49.740;6.604;2024-03-17T18:12:38;4.35;;;2.53;;
16820;SDS011;8527;49.740;6.604;2024-03-17T18:17:37;2.55;;;1.88;;
16820;SDS011;8527;49.740;6.604;2024-03-17T18:22:38;3.65;;;1.60;;
16820;SDS011;8527;49.740;6.604;2024-03-17T18:27:36;4.88;;;2.00;;
16820;SDS011;8527;49.740;6.604;2024-03-17T18:32:35;2.72;;;1.80;;
16820;SDS011;8527;49.740;6.604;2024-03-17T18:37:33;5.90;;;2.13;;
16820;SDS011;8527;49.740;6.604;2024-03-17T18:42:35;3.78;;;2.38;;
16820;SDS011;8527;49.740;6.604;2024-03-17T18:47:34;4.03;;;2.08;;
16820;SDS011;8527;49.740;6.604;2024-03-17T18:52:33;3.35;;;2.17;;
16820;SDS011;8527;49.740;6.604;2024-03-17T18:57:31;4.45;;;2.15;;
16820;SDS011;8527;49.740;6.604;2024-03-17T19:02:33;5.88;;;2.42;;
16820;SDS011;8527;49.740;6.604;2024-03-17T19:07:32;2.60;;;1.83;;
16820;SDS011;8527;49.740;6.604;2024-03-17T19:12:31;4.53;;;2.45;;
16820;SDS011;8527;49.740;6.604;2024-03-17T19:17:33;2.13;;;1.85;;
16820;SDS011;8527;49.740;6.604;2024-03-17T19:22:31;2.88;;;1.98;;
16820;SDS011;8527;49.740;6.604;2024-03-17T19:27:30;3.28;;;1.45;;
16820;SDS011;8527;49.740;6.604;2024-03-17T19:32:31;3.35;;;1.83;;
16820;SDS011;8527;49.740;6.604;2024-03-17T19:37:32;4.45;;;1.55;;
16820;SDS011;8527;49.740;6.604;2024-03-17T19:42:30;3.25;;;2.08;;
16820;SDS011;8527;49.740;6.604;2024-03-17T19:47:32;6.75;;;3.45;;
16820;SDS011;8527;49.740;6.604;2024-03-17T19:52:30;5.40;;;3.28;;
16820;SDS011;8527;49.740;6.604;2024-03-17T19:57:29;4.00;;;2.53;;
16820;SDS011;8527;49.740;6.604;2024-03-17T20:02:27;2.65;;;2.20;;
16820;SDS011;8527;49.740;6.604;2024-03-17T20:07:28;2.38;;;2.00;;
16820;SDS011;8527;49.740;6.604;2024-03-17T20:12:27;2.25;;;1.80;;
16820;SDS011;8527;49.740;6.604;2024-03-17T20:17:26;5.88;;;2.75;;
16820;SDS011;8527;49.740;6.604;2024-03-17T20:22:31;4.57;;;2.50;;
16820;SDS011;8527;49.740;6.604;2024-03-17T20:27:29;2.92;;;2.22;;
16820;SDS011;8527;49.740;6.604;2024-03-17T20:32:28;2.20;;;2.00;;
16820;SDS011;8527;49.740;6.604;2024-03-17T20:37:27;2.75;;;1.75;;
16820;SDS011;8527;49.740;6.604;2024-03-17T20:42:28;1.88;;;1.50;;
16820;SDS011;8527;49.740;6.604;2024-03-17T20:47:27;2.90;;;1.80;;
16820;SDS011;8527;49.740;6.604;2024-03-17T20:52:25;4.15;;;1.70;;
16820;SDS011;8527;49.740;6.604;2024-03-17T20:57:24;2.08;;;1.38;;
16820;SDS011;8527;49.740;6.604;2024-03-17T21:02:25;2.05;;;1.85;;
16820;SDS011;8527;49.740;6.604;2024-03-17T21:07:24;3.13;;;2.03;;
16820;SDS011;8527;49.740;6.604;2024-03-17T21:12:23;4.57;;;1.73;;
16820;SDS011;8527;49.740;6.604;2024-03-17T21:17:21;2.45;;;2.20;;
16820;SDS011;8527;49.740;6.604;2024-03-17T21:22:22;4.50;;;2.45;;
16820;SDS011;8527;49.740;6.604;2024-03-17T21:27:21;4.15;;;2.15;;
16820;SDS011;8527;49.740;6.604;2024-03-17T21:32:20;3.28;;;2.25;;
16820;SDS011;8527;49.740;6.604;2024-03-17T21:37:18;3.13;;;2.05;;
16820;SDS011;8527;49.740;6.604;2024-03-17T21:42:21;3.80;;;2.40;;
16820;SDS011;8527;49.740;6.604;2024-03-17T21:47:19;2.20;;;2.00;;
16820;SDS011;8527;49.740;6.604;2024-03-17T21:52:18;2.90;;;1.80;;
16820;SDS011;8527;49.740;6.604;2024-03-17T21:57:19;3.75;;;2.28;;
16820;SDS011;8527;49.740;6.604;2024-03-17T22:02:17;4.70;;;2.60;;
16820;SDS011;8527;49.740;6.604;2024-03-17T22:07:16;2.88;;;1.83;;
16820;SDS011;8527;49.740;6.604;2024-03-17T22:12:14;2.42;;;1.55;;
16820;SDS011;8527;49.740;6.604;2024-03-17T22:17:15;3.22;;;1.70;;
16820;SDS011;8527;49.740;6.604;2024-03-17T22:22:13;5.10;;;1.98;;
16820;SDS011;8527;49.740;6.604;2024-03-17T22:27:12;4.50;;;1.70;;
16820;SDS011;8527;49.740;6.604;2024-03-17T22:32:10;4.65;;;1.50;;
16820;SDS011;8527;49.740;6.604;2024-03-17T22:37:11;2.67;;;1.85;;
16820;SDS011;8527;49.740;6.604;2024-03-17T22:42:10;12.00;;;2.10;;
16820;SDS011;8527;49.740;6.604;2024-03-17T22:47:09;1.60;;;1.50;;
16820;SDS011;8527;49.740;6.604;2024-03-17T22:52:08;3.53;;;1.50;;
16820;SDS011;8527;49.740;6.604;2024-03-17T22:57:09;2.15;;;1.40;;
16820;SDS011;8527;49.740;6.604;2024-03-17T23:02:08;2.72;;;1.73;;
16820;SDS011;8527;49.740;6.604;2024-03-17T23:07:06;2.65;;;1.77;;
16820;SDS011;8527;49.740;6.604;2024-03-17T23:12:05;4.05;;;1.67;;
16820;SDS011;8527;49.740;6.604;2024-03-17T23:17:08;3.92;;;1.20;;
16820;SDS011;8527;49.740;6.604;2024-03-17T23:22:06;3.60;;;1.60;;
16820;SDS011;8527;49.740;6.604;2024-03-17T23:27:05;4.28;;;1.60;;
16820;SDS011;8527;49.740;6.604;2024-03-17T23:32:03;4.47;;;1.63;;
16820;SDS011;8527;49.740;6.604;2024-03-17T23:37:05;3.00;;;1.70;;
16820;SDS011;8527;49.740;6.604;2024-03-17T23:42:03;3.67;;;1.85;;
16820;SDS011;8527;49.740;6.604;2024-03-17T23:47:02;3.92;;;2.00;;
16820;SDS011;8527;49.740;6.604;2024-03-17T23:52:01;4.70;;;1.70;;
16820;SDS011;8527;49.740;6.604;2024-03-17T23:57:04;4.22;;;1.70;;
